createdAt,value
2018-09-29T00:02:04.896Z,91.74
2018-09-29T00:04:34.434Z,92.55
2018-09-29T00:07:04.053Z,91.91
2018-09-29T00:09:33.653Z,91.59
2018-09-29T00:12:03.151Z,91.09
2018-09-29T00:14:32.656Z,91.36
2018-09-29T00:17:02.266Z,91.55
2018-09-29T00:19:31.789Z,91.42
2018-09-29T00:22:01.453Z,90.82
2018-09-29T00:24:30.995Z,91.13
2018-09-29T00:27:06.835Z,91.24
2018-09-29T00:29:36.387Z,91.36
2018-09-29T00:32:05.972Z,91.57
2018-09-29T00:34:35.504Z,90.89
2018-09-29T00:37:05.031Z,90.45
2018-09-29T00:39:34.546Z,89.69
2018-09-29T00:42:10.269Z,88.87
2018-09-29T00:44:39.856Z,89.10
2018-09-29T00:47:09.476Z,88.08
2018-09-29T00:49:39.084Z,87.76
2018-09-29T00:52:08.887Z,87.30
2018-09-29T00:54:38.470Z,87.26
2018-09-29T00:57:08.085Z,86.76
2018-09-29T00:59:37.703Z,87.36
2018-09-29T01:02:07.383Z,87.04
2018-09-29T01:04:36.940Z,87.40
2018-09-29T01:07:06.745Z,88.76
2018-09-29T01:09:36.249Z,88.97
2018-09-29T01:12:05.871Z,89.48
2018-09-29T01:14:35.443Z,88.88
2018-09-29T01:17:05.176Z,89.11
2018-09-29T01:19:34.778Z,90.51
2018-09-29T01:22:04.440Z,90.79
2018-09-29T01:24:34.031Z,91.72
2018-09-29T01:27:03.671Z,91.10
2018-09-29T01:29:33.317Z,90.93
2018-09-29T01:32:02.848Z,90.08
2018-09-29T01:34:32.414Z,89.81
2018-09-29T01:37:02.020Z,90.26
2018-09-29T01:39:31.585Z,90.16
2018-09-29T01:42:01.172Z,90.36
2018-09-29T01:44:30.680Z,90.16
2018-09-29T01:47:00.403Z,90.00
2018-09-29T01:49:29.967Z,91.16
2018-09-29T01:51:59.596Z,90.89
2018-09-29T01:54:29.209Z,92.36
2018-09-29T01:56:58.797Z,92.47
2018-09-29T01:59:28.372Z,92.37
2018-09-29T02:01:58.062Z,92.05
2018-09-29T02:04:27.592Z,91.50
2018-09-29T02:06:57.156Z,91.56
2018-09-29T02:09:26.618Z,91.47
2018-09-29T02:11:56.237Z,90.78
2018-09-29T02:14:25.758Z,91.08
2018-09-29T02:16:55.304Z,90.20
2018-09-29T02:19:24.808Z,89.34
2018-09-29T02:21:54.367Z,90.34
2018-09-29T02:24:23.980Z,89.89
2018-09-29T02:26:53.521Z,89.52
2018-09-29T02:29:23.042Z,89.81
2018-09-29T02:31:52.555Z,89.45
2018-09-29T02:34:22.088Z,89.41
2018-09-29T02:36:51.650Z,89.85
2018-09-29T02:39:21.264Z,89.57
2018-09-29T02:41:50.890Z,90.45
2018-09-29T02:44:20.451Z,91.78
2018-09-29T02:46:50.024Z,91.49
2018-09-29T02:49:19.526Z,90.79
2018-09-29T02:51:49.115Z,90.92
2018-09-29T02:54:18.671Z,91.65
2018-09-29T02:56:48.208Z,91.26
2018-09-29T02:59:17.812Z,91.64
2018-09-29T03:01:47.351Z,91.65
2018-09-29T03:04:16.859Z,90.85
2018-09-29T03:06:46.460Z,90.99
2018-09-29T03:09:16.018Z,91.22
2018-09-29T03:11:45.580Z,90.83
2018-09-29T03:14:15.115Z,90.55
2018-09-29T03:16:44.672Z,90.37
2018-09-29T03:19:14.290Z,90.20
2018-09-29T03:21:43.808Z,90.72
2018-09-29T03:24:13.294Z,90.73
2018-09-29T03:26:42.894Z,90.24
2018-09-29T03:29:12.423Z,90.04
2018-09-29T03:31:42.034Z,90.86
2018-09-29T03:34:11.525Z,90.83
2018-09-29T03:36:41.137Z,90.05
2018-09-29T03:39:12.003Z,89.89
2018-09-29T03:41:41.612Z,90.32
2018-09-29T03:44:11.202Z,89.97
2018-09-29T03:46:40.781Z,90.91
2018-09-29T03:49:10.323Z,91.31
2018-09-29T03:51:39.890Z,91.28
2018-09-29T03:54:09.421Z,91.07
2018-09-29T03:56:39.073Z,90.33
2018-09-29T03:59:08.651Z,90.57
2018-09-29T04:01:38.215Z,93.46
2018-09-29T04:04:07.755Z,94.82
2018-09-29T04:06:37.347Z,95.07
2018-09-29T04:09:08.357Z,93.82
2018-09-29T04:11:37.954Z,92.71
2018-09-29T04:14:07.860Z,92.59
2018-09-29T04:16:37.436Z,92.64
2018-09-29T04:19:07.258Z,92.27
2018-09-29T04:21:45.242Z,90.72
2018-09-29T04:24:21.405Z,91.18
2018-09-29T04:26:50.956Z,90.85
2018-09-29T04:29:20.508Z,90.89
2018-09-29T04:31:50.160Z,90.50
2018-09-29T04:34:19.735Z,89.98
2018-09-29T04:36:49.320Z,89.89
2018-09-29T04:39:18.889Z,89.63
2018-09-29T04:41:48.511Z,89.96
2018-09-29T04:44:18.073Z,89.92
2018-09-29T04:46:47.647Z,90.68
2018-09-29T04:49:17.295Z,91.57
2018-09-29T04:51:46.771Z,91.88
2018-09-29T04:54:16.303Z,92.28
2018-09-29T04:56:45.871Z,92.12
2018-09-29T04:59:15.446Z,91.56
2018-09-29T05:01:45.020Z,91.37
2018-09-29T05:04:14.610Z,91.15
2018-09-29T05:06:44.172Z,91.06
2018-09-29T05:09:13.725Z,91.27
2018-09-29T05:11:43.392Z,91.03
2018-09-29T05:14:12.880Z,90.23
2018-09-29T05:16:42.468Z,90.72
2018-09-29T05:19:12.024Z,90.50
2018-09-29T05:21:41.604Z,91.70
2018-09-29T05:24:11.128Z,91.33
2018-09-29T05:26:40.719Z,91.45
2018-09-29T05:29:10.277Z,92.07
2018-09-29T05:31:39.777Z,91.70
2018-09-29T05:34:09.335Z,91.38
2018-09-29T05:36:38.920Z,91.02
2018-09-29T05:39:09.681Z,90.08
2018-09-29T05:41:39.179Z,91.45
2018-09-29T05:44:08.845Z,90.78
2018-09-29T05:46:38.516Z,91.00
2018-09-29T05:49:08.174Z,90.63
2018-09-29T05:51:37.816Z,91.86
2018-09-29T05:54:07.421Z,91.26
2018-09-29T05:56:36.999Z,90.85
2018-09-29T05:59:06.736Z,90.78
2018-09-29T06:01:36.332Z,90.69
2018-09-29T06:04:05.907Z,91.49
2018-09-29T06:06:35.564Z,92.24
2018-09-29T06:09:07.304Z,92.38
2018-09-29T06:11:36.875Z,91.93
2018-09-29T06:14:06.568Z,92.15
2018-09-29T06:16:36.164Z,92.73
2018-09-29T06:19:05.808Z,92.15
2018-09-29T06:21:35.352Z,91.08
2018-09-29T06:24:04.935Z,90.76
2018-09-29T06:26:34.477Z,90.56
2018-09-29T06:29:04.145Z,90.80
2018-09-29T06:31:33.687Z,90.05
2018-09-29T06:34:03.324Z,90.04
2018-09-29T06:36:32.850Z,90.06
2018-09-29T06:39:02.388Z,90.02
2018-09-29T06:41:31.997Z,89.34
2018-09-29T06:44:01.491Z,89.02
2018-09-29T06:46:31.080Z,88.94
2018-09-29T06:49:00.659Z,88.86
2018-09-29T06:51:30.348Z,89.27
2018-09-29T06:53:59.901Z,89.25
2018-09-29T06:56:29.696Z,88.56
2018-09-29T06:58:59.272Z,88.44
2018-09-29T07:01:29.048Z,88.45
2018-09-29T07:03:58.598Z,88.87
2018-09-29T07:06:28.126Z,89.02
2018-09-29T07:08:57.767Z,89.13
2018-09-29T07:11:27.517Z,89.08
2018-09-29T07:13:57.020Z,88.20
2018-09-29T07:16:26.612Z,88.27
2018-09-29T07:18:56.160Z,88.44
2018-09-29T07:21:25.917Z,87.94
2018-09-29T07:23:55.454Z,87.43
2018-09-29T07:26:24.986Z,87.57
2018-09-29T07:28:54.540Z,87.23
2018-09-29T07:31:24.152Z,86.88
2018-09-29T07:33:53.733Z,86.52
2018-09-29T07:36:24.099Z,86.13
2018-09-29T07:38:54.694Z,85.64
2018-09-29T07:41:25.301Z,85.18
2018-09-29T07:43:54.870Z,85.79
2018-09-29T07:46:24.256Z,85.21
2018-09-29T07:48:53.774Z,85.18
2018-09-29T07:51:23.476Z,84.71
2018-09-29T07:53:54.116Z,84.07
2018-09-29T07:56:23.569Z,83.70
2018-09-29T07:58:52.956Z,83.30
2018-09-29T08:01:22.344Z,83.27
2018-09-29T08:03:52.506Z,82.96
2018-09-29T08:06:22.855Z,82.56
2018-09-29T08:08:52.976Z,82.05
2018-09-29T08:11:23.317Z,81.73
2018-09-29T08:13:53.779Z,81.54
2018-09-29T08:16:24.106Z,82.13
2018-09-29T08:18:53.905Z,81.08
2018-09-29T08:21:23.300Z,81.00
2018-09-29T08:26:39.704Z,81.06
2018-09-29T08:29:10.051Z,80.61
2018-09-29T08:31:39.495Z,80.59
2018-09-29T08:34:08.940Z,79.11
2018-09-29T08:36:38.360Z,77.68
2018-09-29T08:39:09.423Z,77.50
2018-09-29T08:41:38.831Z,77.33
2018-09-29T08:44:08.240Z,76.28
2018-09-29T08:46:37.695Z,74.65
2018-09-29T08:49:07.128Z,74.07
2018-09-29T08:51:36.559Z,73.79
2018-09-29T08:54:06.104Z,72.18
2018-09-29T08:56:35.519Z,72.46
2018-09-29T08:59:05.316Z,70.61
2018-09-29T09:01:34.720Z,69.99
2018-09-29T09:04:04.270Z,69.97
2018-09-29T09:06:33.543Z,69.33
2018-09-29T09:09:03.008Z,70.47
2018-09-29T09:11:32.436Z,69.62
2018-09-29T09:14:01.847Z,67.66
2018-09-29T09:16:31.256Z,66.36
2018-09-29T09:19:00.727Z,65.00
2018-09-29T09:21:30.131Z,65.65
2018-09-29T09:23:59.571Z,62.15
2018-09-29T09:26:29.411Z,62.00
2018-09-29T09:28:58.901Z,61.35
2018-09-29T09:31:28.318Z,64.02
2018-09-29T09:33:57.836Z,62.25
2018-09-29T09:36:27.232Z,59.87
2018-09-29T09:38:56.664Z,62.31
2018-09-29T09:41:26.080Z,62.88
2018-09-29T09:43:55.484Z,60.22
2018-09-29T09:46:24.999Z,59.72
2018-09-29T09:48:54.389Z,59.74
2018-09-29T09:51:23.806Z,59.27
2018-09-29T09:53:53.199Z,58.42
2018-09-29T09:56:22.614Z,57.57
2018-09-29T09:58:52.044Z,57.89
2018-09-29T10:01:26.752Z,57.79
2018-09-29T10:03:56.176Z,55.83
2018-09-29T10:06:25.636Z,56.16
2018-09-29T10:08:55.005Z,56.44
2018-09-29T10:11:24.432Z,55.71
2018-09-29T10:13:53.848Z,54.63
2018-09-29T10:16:23.257Z,53.73
2018-09-29T10:18:52.781Z,53.72
2018-09-29T10:21:22.190Z,53.26
2018-09-29T10:23:51.660Z,51.44
2018-09-29T10:26:21.100Z,54.54
2018-09-29T10:28:50.492Z,53.75
2018-09-29T10:31:21.782Z,53.64
2018-09-29T10:33:52.507Z,52.73
2018-09-29T10:36:23.377Z,52.71
2018-09-29T10:38:52.956Z,51.90
2018-09-29T10:41:23.939Z,52.26
2018-09-29T10:43:54.828Z,50.95
2018-09-29T10:46:25.253Z,49.13
2018-09-29T10:48:55.793Z,48.57
2018-09-29T10:51:26.528Z,50.02
2018-09-29T10:53:55.973Z,49.28
2018-09-29T10:56:26.602Z,49.25
2018-09-29T10:58:57.325Z,48.07
2018-09-29T11:01:27.962Z,48.23
2018-09-29T11:03:57.436Z,47.19
2018-09-29T11:06:27.997Z,47.75
2018-09-29T11:08:58.279Z,47.34
2018-09-29T11:11:28.544Z,46.98
2018-09-29T11:13:59.080Z,46.61
2018-09-29T11:16:28.551Z,47.31
2018-09-29T11:18:58.088Z,46.77
2018-09-29T11:21:28.621Z,47.71
2018-09-29T11:23:59.194Z,44.93
2018-09-29T11:26:29.057Z,44.37
2018-09-29T11:29:00.188Z,45.00
2018-09-29T11:31:30.941Z,45.48
2018-09-29T11:34:01.675Z,44.90
2018-09-29T11:36:31.107Z,44.89
2018-09-29T11:39:00.515Z,43.74
2018-09-29T11:41:29.916Z,45.06
2018-09-29T11:44:00.466Z,41.84
2018-09-29T11:46:31.471Z,44.60
2018-09-29T11:49:01.708Z,41.62
2018-09-29T11:51:31.143Z,43.06
2018-09-29T11:54:01.846Z,43.87
2018-09-29T11:56:32.411Z,41.46
2018-09-29T11:59:02.884Z,40.80
2018-09-29T12:01:33.757Z,40.99
2018-09-29T12:04:03.237Z,40.58
2018-09-29T12:06:33.877Z,40.49
2018-09-29T12:09:04.578Z,41.58
2018-09-29T12:11:35.161Z,40.56
2018-09-29T12:14:05.945Z,40.02
2018-09-29T12:16:37.412Z,40.23
2018-09-29T12:19:07.969Z,41.42
2018-09-29T12:21:38.601Z,38.71
2018-09-29T12:24:08.472Z,37.23
2018-09-29T12:26:39.236Z,37.08
2018-09-29T12:29:09.806Z,37.97
2018-09-29T12:31:39.275Z,37.84
2018-09-29T12:34:09.564Z,35.90
2018-09-29T12:36:40.445Z,34.63
2018-09-29T12:39:11.750Z,36.25
2018-09-29T12:41:42.326Z,35.12
2018-09-29T12:44:11.759Z,34.65
2018-09-29T12:46:41.175Z,34.66
2018-09-29T12:49:11.959Z,34.08
2018-09-29T12:51:42.332Z,35.53
2018-09-29T12:54:12.721Z,35.68
2018-09-29T12:56:42.215Z,33.58
2018-09-29T12:59:12.698Z,33.90
2018-09-29T13:01:42.148Z,34.19
2018-09-29T13:04:12.222Z,35.44
2018-09-29T13:06:41.665Z,33.20
2018-09-29T13:09:11.079Z,34.78
2018-09-29T13:11:40.532Z,32.55
2018-09-29T13:14:09.931Z,32.92
2018-09-29T13:16:39.327Z,32.37
2018-09-29T13:19:08.802Z,31.53
2018-09-29T13:21:38.276Z,30.72
2018-09-29T13:24:07.701Z,30.48
2018-09-29T13:26:37.253Z,29.51
2018-09-29T13:29:06.655Z,30.83
2018-09-29T13:31:36.064Z,28.67
2018-09-29T13:34:05.592Z,28.55
2018-09-29T13:36:35.071Z,28.56
2018-09-29T13:39:06.215Z,27.62
2018-09-29T13:41:35.755Z,30.61
2018-09-29T13:44:05.163Z,29.79
2018-09-29T13:46:34.592Z,26.98
2018-09-29T13:49:04.184Z,27.20
2018-09-29T13:51:34.008Z,27.31
2018-09-29T13:54:03.639Z,27.42
2018-09-29T13:56:33.063Z,27.97
2018-09-29T13:59:02.494Z,27.16
2018-09-29T14:01:32.151Z,27.54
2018-09-29T14:04:01.669Z,25.78
2018-09-29T14:06:31.300Z,25.93
2018-09-29T14:09:00.886Z,24.65
2018-09-29T14:11:30.401Z,25.58
2018-09-29T14:13:59.795Z,24.07
2018-09-29T14:16:29.272Z,24.51
2018-09-29T14:18:58.675Z,24.24
2018-09-29T14:21:28.099Z,24.67
2018-09-29T14:23:57.505Z,24.32
2018-09-29T14:26:26.927Z,24.10
2018-09-29T14:28:56.339Z,25.52
2018-09-29T14:31:25.733Z,25.88
2018-09-29T14:33:55.181Z,26.43
2018-09-29T14:36:24.611Z,26.20
2018-09-29T14:38:54.380Z,26.25
2018-09-29T14:41:24.004Z,27.70
2018-09-29T14:43:53.412Z,27.43
2018-09-29T14:46:22.800Z,27.74
2018-09-29T14:48:52.280Z,28.07
2018-09-29T14:51:21.698Z,27.34
2018-09-29T14:53:51.111Z,27.83
2018-09-29T14:56:20.555Z,27.91
2018-09-29T14:58:49.964Z,28.85
2018-09-29T15:01:19.379Z,28.92
2018-09-29T15:03:48.776Z,27.68
2018-09-29T15:06:18.176Z,28.57
2018-09-29T15:08:47.592Z,29.39
2018-09-29T15:11:17.152Z,28.22
2018-09-29T15:13:46.851Z,28.90
2018-09-29T15:16:16.489Z,27.55
2018-09-29T15:18:46.331Z,27.71
2018-09-29T15:21:15.844Z,28.44
2018-09-29T15:23:45.367Z,27.54
2018-09-29T15:26:14.760Z,27.41
2018-09-29T15:28:44.218Z,28.08
2018-09-29T15:31:13.623Z,26.88
2018-09-29T15:33:43.083Z,26.28
2018-09-29T15:36:12.497Z,26.51
2018-09-29T15:38:41.893Z,27.49
2018-09-29T15:41:11.291Z,27.79
2018-09-29T15:43:40.719Z,27.23
2018-09-29T15:46:10.218Z,29.19
2018-09-29T15:48:39.679Z,28.19
2018-09-29T15:51:09.056Z,26.87
2018-09-29T15:53:38.487Z,25.79
2018-09-29T15:56:08.807Z,27.66
2018-09-29T15:58:39.363Z,28.25
2018-09-29T16:01:09.865Z,28.70
2018-09-29T16:03:40.429Z,29.66
2018-09-29T16:06:10.548Z,30.58
2018-09-29T16:08:40.739Z,30.95
2018-09-29T16:11:10.248Z,31.46
2018-09-29T16:13:39.732Z,32.81
2018-09-29T16:16:10.720Z,31.32
2018-09-29T16:18:40.164Z,32.18
2018-09-29T16:21:10.572Z,31.47
2018-09-29T16:23:41.144Z,33.52
2018-09-29T16:26:11.455Z,35.62
2018-09-29T16:28:41.776Z,36.31
2018-09-29T16:31:12.063Z,37.28
2018-09-29T16:33:42.573Z,38.69
2018-09-29T16:36:13.046Z,40.25
2018-09-29T16:38:43.808Z,40.25
2018-09-29T16:41:13.220Z,41.80
2018-09-29T16:43:42.670Z,42.04
2018-09-29T16:46:12.039Z,42.72
2018-09-29T16:48:41.492Z,43.78
2018-09-29T16:51:10.977Z,45.36
2018-09-29T16:53:40.387Z,45.01
2018-09-29T16:56:09.839Z,47.05
2018-09-29T16:58:39.240Z,46.08
2018-09-29T17:01:08.668Z,48.66
2018-09-29T17:03:38.076Z,49.78
2018-09-29T17:06:07.536Z,49.26
2018-09-29T17:08:36.967Z,49.64
2018-09-29T17:11:06.836Z,50.71
2018-09-29T17:13:36.252Z,52.04
2018-09-29T17:16:06.108Z,51.91
2018-09-29T17:18:35.744Z,52.36
2018-09-29T17:21:05.195Z,52.95
2018-09-29T17:23:34.629Z,53.71
2018-09-29T17:26:04.116Z,54.55
2018-09-29T17:28:33.525Z,54.98
2018-09-29T17:31:03.032Z,53.99
2018-09-29T17:33:32.443Z,53.35
2018-09-29T17:36:01.845Z,54.20
2018-09-29T17:38:31.313Z,55.31
2018-09-29T17:41:00.713Z,55.77
2018-09-29T17:43:30.171Z,56.54
2018-09-29T17:45:59.624Z,58.38
2018-09-29T17:48:29.033Z,58.50
2018-09-29T17:50:58.551Z,60.91
2018-09-29T17:53:27.953Z,60.53
2018-09-29T17:55:57.448Z,60.33
2018-09-29T17:58:26.861Z,61.68
2018-09-29T18:00:56.260Z,61.11
2018-09-29T18:03:25.678Z,61.32
2018-09-29T18:05:55.167Z,61.61
2018-09-29T18:08:24.753Z,62.32
2018-09-29T18:10:54.116Z,62.84
2018-09-29T18:13:23.637Z,63.70
2018-09-29T18:15:53.099Z,64.55
2018-09-29T18:18:22.588Z,64.72
2018-09-29T18:20:52.021Z,64.45
2018-09-29T18:23:21.423Z,64.49
2018-09-29T18:25:50.856Z,64.29
2018-09-29T18:28:20.266Z,64.21
2018-09-29T18:30:49.700Z,64.42
2018-09-29T18:33:19.128Z,65.43
2018-09-29T18:35:48.609Z,65.29
2018-09-29T18:38:18.015Z,65.58
2018-09-29T18:40:47.619Z,65.29
2018-09-29T18:43:17.060Z,66.74
2018-09-29T18:45:46.497Z,66.71
2018-09-29T18:48:15.905Z,67.17
2018-09-29T18:50:45.374Z,67.43
2018-09-29T18:53:15.693Z,67.01
2018-09-29T18:55:45.122Z,67.36
2018-09-29T18:58:14.725Z,68.02
2018-09-29T19:00:44.628Z,67.64
2018-09-29T19:03:14.217Z,68.24
2018-09-29T19:05:43.687Z,68.51
2018-09-29T19:08:13.232Z,69.36
2018-09-29T19:10:43.000Z,69.71
2018-09-29T19:13:13.138Z,69.49
2018-09-29T19:15:43.225Z,70.22
2018-09-29T19:18:12.916Z,70.45
2018-09-29T19:20:42.997Z,70.39
2018-09-29T19:23:13.164Z,72.21
2018-09-29T19:25:42.772Z,72.12
2018-09-29T19:28:12.340Z,72.10
2018-09-29T19:30:42.224Z,72.40
2018-09-29T19:33:11.665Z,72.57
2018-09-29T19:35:41.074Z,72.92
2018-09-29T19:38:10.493Z,72.39
2018-09-29T19:40:41.878Z,73.07
2018-09-29T19:43:12.171Z,73.24
2018-09-29T19:45:43.827Z,72.97
2018-09-29T19:48:15.383Z,73.10
2018-09-29T19:50:45.164Z,73.13
2018-09-29T19:53:15.125Z,73.49
2018-09-29T19:55:45.078Z,73.71
2018-09-29T19:58:14.826Z,73.82
2018-09-29T20:00:44.279Z,73.72
2018-09-29T20:03:13.815Z,74.55
2018-09-29T20:05:43.670Z,75.48
2018-09-29T20:08:13.741Z,75.04
2018-09-29T20:10:44.234Z,75.70
2018-09-29T20:13:13.687Z,75.72
2018-09-29T20:15:43.403Z,75.54
2018-09-29T20:18:12.926Z,76.17
2018-09-29T20:20:42.328Z,76.12
2018-09-29T20:23:11.853Z,76.62
2018-09-29T20:25:41.452Z,76.71
2018-09-29T20:28:11.031Z,77.36
2018-09-29T20:30:40.691Z,77.49
2018-09-29T20:33:10.021Z,77.90
2018-09-29T20:35:39.531Z,77.62
2018-09-29T20:38:09.049Z,78.01
2018-09-29T20:40:39.528Z,77.59
2018-09-29T20:43:10.026Z,78.29
2018-09-29T20:45:40.564Z,77.97
2018-09-29T20:48:10.650Z,78.33
2018-09-29T20:50:40.114Z,78.39
2018-09-29T20:53:09.513Z,78.47
2018-09-29T20:55:38.920Z,78.40
2018-09-29T20:58:08.337Z,78.41
2018-09-29T21:00:44.155Z,78.12
2018-09-29T21:03:13.573Z,78.27
2018-09-29T21:05:43.067Z,78.73
2018-09-29T21:08:12.451Z,78.78
2018-09-29T21:10:42.026Z,78.59
2018-09-29T21:13:11.495Z,78.97
2018-09-29T21:15:40.808Z,79.03
2018-09-29T21:18:10.264Z,79.51
2018-09-29T21:20:40.394Z,79.86
2018-09-29T21:23:09.958Z,79.27
2018-09-29T21:25:39.621Z,79.32
2018-09-29T21:28:09.188Z,78.93
2018-09-29T21:30:38.580Z,79.08
2018-09-29T21:33:08.164Z,79.49
2018-09-29T21:35:37.561Z,79.27
2018-09-29T21:38:07.072Z,78.92
2018-09-29T21:40:36.692Z,80.10
2018-09-29T21:43:06.377Z,79.57
2018-09-29T21:45:35.990Z,80.00
2018-09-29T21:48:05.591Z,79.99
2018-09-29T21:50:35.291Z,80.86
2018-09-29T21:53:04.883Z,80.98
2018-09-29T21:55:34.617Z,80.84
2018-09-29T21:58:04.268Z,80.94
2018-09-29T22:00:38.929Z,81.34
2018-09-29T22:03:08.439Z,81.22
2018-09-29T22:05:37.841Z,81.92
2018-09-29T22:08:07.510Z,81.85
2018-09-29T22:10:36.979Z,81.92
2018-09-29T22:13:09.523Z,82.22
2018-09-29T22:15:38.966Z,81.75
2018-09-29T22:18:08.391Z,81.84
2018-09-29T22:20:37.797Z,82.22
2018-09-29T22:23:07.192Z,83.42
2018-09-29T22:25:36.592Z,82.80
2018-09-29T22:28:06.013Z,82.92
2018-09-29T22:30:35.537Z,83.29
2018-09-29T22:33:04.995Z,83.17
2018-09-29T22:35:34.415Z,83.13
2018-09-29T22:38:03.819Z,83.02
2018-09-29T22:40:33.217Z,82.77
2018-09-29T22:43:02.642Z,84.84
2018-09-29T22:45:32.024Z,85.99
2018-09-29T22:48:01.466Z,85.69
2018-09-29T22:50:30.860Z,85.28
2018-09-29T22:53:00.268Z,84.89
2018-09-29T22:55:29.647Z,84.81
2018-09-29T22:57:59.136Z,84.02
2018-09-29T23:00:28.519Z,84.36
2018-09-29T23:02:57.920Z,83.76
2018-09-29T23:05:27.349Z,83.69
2018-09-29T23:07:56.759Z,84.25
2018-09-29T23:10:26.147Z,83.93
2018-09-29T23:12:55.595Z,83.77
2018-09-29T23:15:25.027Z,83.60
2018-09-29T23:17:54.654Z,83.93
2018-09-29T23:20:24.067Z,84.03
2018-09-29T23:22:53.576Z,84.26
2018-09-29T23:25:23.033Z,83.70
2018-09-29T23:27:53.071Z,83.45
2018-09-29T23:30:22.528Z,83.76
2018-09-29T23:32:53.196Z,83.84
2018-09-29T23:35:22.604Z,84.40
2018-09-29T23:37:53.069Z,83.98
2018-09-29T23:40:22.496Z,83.62
2018-09-29T23:42:53.155Z,83.92
2018-09-29T23:45:22.687Z,84.85
2018-09-29T23:47:53.375Z,84.93
2018-09-29T23:50:22.810Z,84.03
2018-09-29T23:52:53.299Z,84.55
2018-09-29T23:55:22.740Z,85.20
2018-09-29T23:57:53.251Z,85.01
